createdAt,value
2022-12-20T00:02:49.675Z,0.70
2022-12-20T00:07:52.371Z,0.70
2022-12-20T00:12:55.080Z,0.70
2022-12-20T00:17:58.522Z,0.60
2022-12-20T00:23:01.583Z,0.50
2022-12-20T00:28:04.564Z,0.50
2022-12-20T00:33:07.150Z,0.60
2022-12-20T00:43:13.092Z,0.70
2022-12-20T00:48:15.646Z,0.70
2022-12-20T00:53:24.503Z,0.80
2022-12-20T00:58:29.166Z,0.80
2022-12-20T01:03:33.165Z,0.60
2022-12-20T01:08:37.196Z,0.70
2022-12-20T01:13:42.389Z,0.60
2022-12-20T01:18:45.456Z,0.80
2022-12-20T01:23:49.650Z,0.70
2022-12-20T01:28:54.705Z,0.70
2022-12-20T01:33:58.495Z,0.70
2022-12-20T01:39:11.126Z,0.80
2022-12-20T01:44:16.713Z,0.80
2022-12-20T01:49:32.370Z,0.80
2022-12-20T01:54:57.249Z,0.90
2022-12-20T02:00:00.011Z,0.90
2022-12-20T02:05:02.884Z,1.00
2022-12-20T02:10:08.979Z,1.20
2022-12-20T02:15:40.059Z,1.20
2022-12-20T02:20:48.470Z,1.40
2022-12-20T02:26:35.158Z,1.30
2022-12-20T02:31:47.075Z,1.20
2022-12-20T02:36:49.773Z,1.40
2022-12-20T02:41:57.432Z,1.40
2022-12-20T02:47:02.991Z,1.30
2022-12-20T02:52:06.788Z,1.30
2022-12-20T02:57:40.059Z,1.30
2022-12-20T03:03:04.534Z,1.40
2022-12-20T03:08:08.835Z,1.40
2022-12-20T03:13:11.316Z,1.50
2022-12-20T03:18:21.498Z,1.50
2022-12-20T03:23:24.343Z,1.60
2022-12-20T03:28:26.839Z,1.70
2022-12-20T03:33:30.613Z,1.60
2022-12-20T03:38:37.212Z,1.60
2022-12-20T03:43:42.252Z,1.60
2022-12-20T03:48:45.165Z,1.50
2022-12-20T03:53:48.209Z,1.70
2022-12-20T03:58:51.105Z,1.60
2022-12-20T04:03:54.515Z,1.60
2022-12-20T04:08:57.242Z,1.50
2022-12-20T04:14:05.775Z,1.60
2022-12-20T04:19:09.323Z,1.60
2022-12-20T04:24:16.953Z,1.50
2022-12-20T04:29:23.385Z,1.70
2022-12-20T04:34:26.543Z,1.70
2022-12-20T04:39:29.655Z,1.70
2022-12-20T04:44:49.446Z,1.70
2022-12-20T04:49:57.715Z,1.60
2022-12-20T04:55:00.258Z,1.80
2022-12-20T05:00:07.672Z,1.60
2022-12-20T05:05:16.850Z,1.50
2022-12-20T05:10:25.219Z,1.40
2022-12-20T05:15:29.774Z,1.40
2022-12-20T05:20:33.612Z,1.40
2022-12-20T05:26:05.088Z,1.50
2022-12-20T05:31:07.947Z,1.60
2022-12-20T05:36:11.825Z,1.70
2022-12-20T05:41:14.364Z,1.60
2022-12-20T05:46:18.457Z,1.50
2022-12-20T05:51:32.645Z,1.40
2022-12-20T05:56:39.471Z,1.30
2022-12-20T06:01:42.206Z,1.30
2022-12-20T06:06:44.952Z,1.30
2022-12-20T06:11:50.907Z,1.20
2022-12-20T06:16:53.791Z,1.10
2022-12-20T06:21:58.274Z,1.00
2022-12-20T06:27:26.723Z,1.10
2022-12-20T06:32:40.711Z,1.00
2022-12-20T06:37:45.626Z,0.80
2022-12-20T06:42:50.528Z,0.80
2022-12-20T06:47:57.292Z,0.70
2022-12-20T06:53:00.093Z,0.60
2022-12-20T06:58:04.217Z,0.70
2022-12-20T07:03:07.339Z,0.80
2022-12-20T07:08:10.102Z,0.70
2022-12-20T07:13:12.682Z,1.00
2022-12-20T07:18:15.121Z,1.10
2022-12-20T07:23:18.947Z,1.30
2022-12-20T07:28:21.787Z,1.60
2022-12-20T07:33:24.253Z,1.70
2022-12-20T07:38:29.220Z,1.80
2022-12-20T07:43:31.813Z,2.00
2022-12-20T07:48:35.188Z,2.20
2022-12-20T07:53:43.837Z,2.20
2022-12-20T07:58:46.862Z,2.20
2022-12-20T08:03:55.975Z,2.10
2022-12-20T08:09:04.326Z,2.10
2022-12-20T08:14:08.308Z,2.30
2022-12-20T08:19:11.180Z,2.30
2022-12-20T08:24:13.954Z,2.20
2022-12-20T08:29:17.879Z,2.20
2022-12-20T08:34:20.434Z,2.30
2022-12-20T08:39:22.919Z,2.40
2022-12-20T08:44:25.667Z,2.60
2022-12-20T08:49:28.416Z,2.80
2022-12-20T08:54:31.112Z,2.90
2022-12-20T08:59:33.866Z,2.80
2022-12-20T09:04:36.732Z,2.70
2022-12-20T09:09:39.325Z,2.60
2022-12-20T09:14:42.526Z,2.50
2022-12-20T09:19:44.966Z,2.60
2022-12-20T09:24:49.316Z,2.80
2022-12-20T09:29:51.796Z,3.10
2022-12-20T09:34:54.319Z,3.10
2022-12-20T09:39:56.877Z,3.10
2022-12-20T09:45:10.009Z,3.10
2022-12-20T09:50:17.597Z,3.20
2022-12-20T09:55:27.172Z,3.30
2022-12-20T10:00:30.724Z,3.40
2022-12-20T10:06:02.199Z,3.60
2022-12-20T10:11:21.186Z,3.60
2022-12-20T10:16:46.514Z,3.60
2022-12-20T10:22:03.900Z,3.60
2022-12-20T10:27:19.365Z,3.70
2022-12-20T10:32:24.340Z,3.50
2022-12-20T10:37:26.868Z,3.30
2022-12-20T10:42:40.731Z,3.30
2022-12-20T10:47:46.148Z,3.20
2022-12-20T10:53:10.445Z,3.00
2022-12-20T10:58:21.924Z,2.80
2022-12-20T11:03:24.998Z,2.70
2022-12-20T11:08:39.255Z,2.90
2022-12-20T11:13:46.699Z,2.90
2022-12-20T11:19:24.560Z,3.10
2022-12-20T11:24:54.143Z,3.20
2022-12-20T11:30:09.837Z,3.70
2022-12-20T11:35:12.370Z,4.10
2022-12-20T11:40:47.138Z,4.50
2022-12-20T11:46:13.583Z,4.80
2022-12-20T11:51:39.503Z,4.60
2022-12-20T11:56:48.369Z,4.60
2022-12-20T12:02:00.544Z,4.40
2022-12-20T12:07:09.768Z,4.40
2022-12-20T12:12:29.188Z,4.30
2022-12-20T12:17:40.579Z,4.20
2022-12-20T12:22:45.103Z,4.10
2022-12-20T12:27:47.738Z,4.10
2022-12-20T12:33:07.364Z,4.00
2022-12-20T12:38:21.921Z,4.00
2022-12-20T12:43:30.392Z,4.00
2022-12-20T12:49:08.419Z,3.90
2022-12-20T12:54:30.311Z,3.80
2022-12-20T12:59:33.005Z,3.70
2022-12-20T13:05:01.114Z,3.70
2022-12-20T13:10:10.007Z,3.70
2022-12-20T13:15:21.405Z,3.60
2022-12-20T13:20:27.813Z,3.50
2022-12-20T13:31:52.581Z,3.50
2022-12-20T13:36:59.700Z,3.60
2022-12-20T13:42:31.048Z,3.60
2022-12-20T13:47:42.219Z,3.60
2022-12-20T13:52:45.468Z,3.40
2022-12-20T13:57:48.186Z,3.20
2022-12-20T14:02:51.812Z,3.10
2022-12-20T14:08:03.971Z,6.40
2022-12-20T14:13:39.446Z,3.00
2022-12-20T14:18:48.238Z,3.00
2022-12-20T14:23:54.485Z,3.00
2022-12-20T14:28:58.895Z,3.00
2022-12-20T14:34:18.067Z,3.00
2022-12-20T14:39:34.165Z,3.00
2022-12-20T14:44:37.718Z,3.00
2022-12-20T14:49:40.853Z,3.00
2022-12-20T14:55:07.790Z,3.50
2022-12-20T15:00:19.615Z,2.70
2022-12-20T15:05:34.922Z,1.40
2022-12-20T15:10:37.993Z,2.60
2022-12-20T15:15:40.905Z,2.60
2022-12-20T15:20:46.211Z,2.50
2022-12-20T15:33:46.497Z,2.60
2022-12-20T15:44:24.385Z,2.70
2022-12-20T15:49:30.264Z,2.70
2022-12-20T15:54:37.333Z,2.70
2022-12-20T16:05:03.207Z,2.60
2022-12-20T16:10:09.302Z,2.60
2022-12-20T16:15:22.759Z,2.60
2022-12-20T16:20:27.562Z,2.30
2022-12-20T16:25:33.440Z,2.20
2022-12-20T16:30:36.277Z,2.00
2022-12-20T16:35:38.793Z,1.90
2022-12-20T16:40:41.459Z,2.00
2022-12-20T16:45:44.371Z,2.00
2022-12-20T16:50:47.051Z,2.00
2022-12-20T16:55:49.681Z,2.00
2022-12-20T17:00:52.283Z,2.00
2022-12-20T17:05:57.257Z,1.90
2022-12-20T17:10:59.835Z,1.80
2022-12-20T17:16:02.520Z,1.60
2022-12-20T17:21:17.902Z,1.60
2022-12-20T17:26:26.113Z,1.80
2022-12-20T17:31:40.966Z,1.90
2022-12-20T17:36:43.939Z,1.90
2022-12-20T17:41:47.904Z,1.90
2022-12-20T17:46:51.404Z,1.90
2022-12-20T17:51:56.210Z,1.90
2022-12-20T17:56:58.803Z,1.80
2022-12-20T18:02:01.511Z,1.80
2022-12-20T18:07:04.933Z,1.80
2022-12-20T18:12:08.359Z,1.80
2022-12-20T18:17:11.180Z,1.70
2022-12-20T18:22:14.733Z,1.60
2022-12-20T18:27:17.613Z,1.70
2022-12-20T18:32:20.198Z,1.70
2022-12-20T18:37:22.930Z,1.80
2022-12-20T18:42:25.537Z,1.90
2022-12-20T18:47:28.995Z,1.90
2022-12-20T18:52:31.784Z,1.90
2022-12-20T18:57:34.427Z,2.00
2022-12-20T19:02:37.416Z,2.10
2022-12-20T19:07:40.413Z,2.10
2022-12-20T19:12:42.979Z,2.10
2022-12-20T19:17:45.544Z,2.10
2022-12-20T19:22:48.044Z,2.20
2022-12-20T19:27:50.694Z,2.20
2022-12-20T19:32:53.671Z,2.20
2022-12-20T19:37:56.588Z,2.20
2022-12-20T19:42:59.160Z,2.20
2022-12-20T19:48:01.672Z,2.10
2022-12-20T19:53:05.559Z,2.10
2022-12-20T19:58:08.050Z,2.10
2022-12-20T20:03:11.411Z,2.10
2022-12-20T20:08:15.336Z,2.10
2022-12-20T20:13:18.123Z,2.10
2022-12-20T20:18:21.174Z,2.10
2022-12-20T20:23:24.373Z,2.10
2022-12-20T20:28:31.891Z,2.10
2022-12-20T20:33:37.471Z,2.20
2022-12-20T20:38:40.349Z,2.10
2022-12-20T20:43:43.655Z,2.10
2022-12-20T20:48:46.395Z,2.10
2022-12-20T20:53:48.913Z,2.10
2022-12-20T20:58:53.543Z,2.10
2022-12-20T21:03:58.091Z,2.20
2022-12-20T21:09:04.756Z,-0.80
2022-12-20T21:14:07.324Z,2.10
2022-12-20T21:19:10.853Z,2.10
2022-12-20T21:24:13.463Z,2.00
2022-12-20T21:29:16.475Z,2.00
2022-12-20T21:34:19.337Z,2.00
2022-12-20T21:39:21.853Z,2.10
2022-12-20T21:44:24.573Z,2.10
2022-12-20T21:49:27.324Z,2.10
2022-12-20T21:54:29.847Z,2.10
2022-12-20T21:59:32.506Z,2.10
2022-12-20T22:04:35.748Z,2.10
2022-12-20T22:09:38.864Z,2.20
2022-12-20T22:14:41.490Z,2.10
2022-12-20T22:19:44.002Z,2.10
2022-12-20T22:24:47.072Z,2.10
2022-12-20T22:29:50.257Z,2.10
2022-12-20T22:34:52.757Z,2.30
2022-12-20T22:39:55.318Z,2.20
2022-12-20T22:44:57.882Z,2.20
2022-12-20T22:50:00.883Z,2.20
2022-12-20T22:55:03.792Z,2.20
2022-12-20T23:00:12.858Z,2.20
2022-12-20T23:05:15.539Z,2.30
2022-12-20T23:10:37.782Z,2.30
2022-12-20T23:15:40.264Z,2.30
2022-12-20T23:21:06.922Z,2.30
2022-12-20T23:26:12.309Z,2.30
2022-12-20T23:31:14.899Z,2.20
2022-12-20T23:36:17.399Z,2.10
2022-12-20T23:41:20.299Z,2.00
2022-12-20T23:46:22.862Z,1.90
2022-12-20T23:51:25.458Z,1.90
2022-12-20T23:56:28.009Z,1.90
